Pagrindinis puslapis
METAR-TAF:

METAR-TAF

Oro uostai :

Brevig Mission, Aliaska, Jungtinės Amerikos Valstijos

platuma: 65-19-53N, ilguma: 166-27-57W, Aukštis: 11 m

Dabartinis oras

Ataskaita buvo paskelbta 36 minutes, ne 03:56 UTC
Vėjas 9 kt iš Vakarų
Temperatūra 5°C
Drėgmė 87%
Slėgis 999 hPa
Matomumas: 14.5 km
Mažai debesys ne aukštis 1600 ft
Apsiniaukę ne aukštis 2200 ft

METAR: PFKT 210356Z AUTO 26009KT 9SM FEW016 OVC022 05/03 A2951 RMK AO2 RAB38E49 SLP992 P0000 T00500028

Laikas: 20:32 (04:32 UTC)


TAF: trūkstamas

Orai ataskaitas ir orų prognozės (METAR, TAF).

turimą stotys yra geltonos ir raudonos taškus žemėlapyje.

Perkelti pele per norėdami pamatyti stoties vardą.

Tada spustelėkite, norėdami matyti oro stebėjimo ir prognozės.

Norėdami pakeisti žemėlapį: spustelėkite ant žalios mygtukų su juodo kryžiaus žemyn,; žalią mygtuką su brūkšneliu, jei norite nutolinti; arba žalių rodyklių gretimoms žemėlapius.


METAR-TAF: